createdAt,value
2017-09-03T00:01:16.643Z,82.11
2017-09-03T00:03:44.310Z,81.76
2017-09-03T00:06:11.872Z,81.27
2017-09-03T00:08:39.502Z,81.23
2017-09-03T00:11:07.086Z,80.83
2017-09-03T00:13:34.713Z,80.06
2017-09-03T00:16:02.362Z,80.46
2017-09-03T00:18:29.986Z,80.60
2017-09-03T00:20:57.579Z,80.79
2017-09-03T00:23:25.214Z,80.71
2017-09-03T00:25:52.830Z,80.86
2017-09-03T00:28:20.490Z,80.40
2017-09-03T00:30:48.095Z,80.60
2017-09-03T00:33:15.742Z,80.91
2017-09-03T00:35:43.498Z,81.56
2017-09-03T00:38:11.121Z,82.31
2017-09-03T00:40:38.728Z,82.11
2017-09-03T00:43:06.355Z,82.15
2017-09-03T00:45:33.964Z,81.90
2017-09-03T00:48:01.612Z,81.80
2017-09-03T00:50:29.222Z,81.67
2017-09-03T00:52:56.832Z,81.85
2017-09-03T00:55:24.586Z,81.29
2017-09-03T00:57:52.186Z,80.94
2017-09-03T01:00:19.828Z,80.98
2017-09-03T01:02:47.719Z,81.81
2017-09-03T01:05:15.584Z,81.97
2017-09-03T01:07:43.760Z,81.78
2017-09-03T01:10:11.702Z,80.59
2017-09-03T01:12:39.489Z,81.13
2017-09-03T01:15:07.358Z,81.09
2017-09-03T01:17:35.128Z,81.21
2017-09-03T01:20:02.913Z,81.84
2017-09-03T01:22:30.854Z,81.19
2017-09-03T01:24:58.720Z,81.30
2017-09-03T01:27:26.298Z,80.59
2017-09-03T01:29:53.947Z,80.91
2017-09-03T01:32:21.753Z,81.63
2017-09-03T01:34:49.627Z,81.61
2017-09-03T01:37:17.544Z,81.18
2017-09-03T01:39:45.521Z,80.51
2017-09-03T01:42:13.383Z,80.89
2017-09-03T01:44:41.199Z,80.39
2017-09-03T01:47:09.062Z,80.49
2017-09-03T01:49:36.931Z,80.69
2017-09-03T01:52:04.586Z,80.33
2017-09-03T01:54:32.183Z,80.63
2017-09-03T01:56:59.819Z,80.71
2017-09-03T01:59:27.451Z,80.86
2017-09-03T02:01:55.090Z,80.71
2017-09-03T02:04:22.722Z,81.11
2017-09-03T02:06:50.361Z,81.39
2017-09-03T02:09:17.980Z,82.00
2017-09-03T02:11:45.606Z,82.04
2017-09-03T02:14:13.204Z,81.82
2017-09-03T02:16:40.820Z,81.52
2017-09-03T02:19:08.427Z,82.05
2017-09-03T02:21:36.074Z,81.72
2017-09-03T02:24:03.659Z,81.18
2017-09-03T02:26:31.456Z,81.78
2017-09-03T02:28:59.383Z,81.53
2017-09-03T02:31:27.282Z,81.84
2017-09-03T02:33:55.128Z,81.91
2017-09-03T02:36:22.868Z,82.40
2017-09-03T02:38:50.858Z,82.75
2017-09-03T02:41:21.117Z,82.46
2017-09-03T02:43:48.987Z,82.86
2017-09-03T02:46:16.953Z,83.89
2017-09-03T02:48:45.129Z,84.22
2017-09-03T02:51:12.997Z,83.82
2017-09-03T02:53:40.577Z,83.12
2017-09-03T02:56:08.220Z,83.43
2017-09-03T02:58:35.810Z,82.17
2017-09-03T03:01:03.466Z,81.89
2017-09-03T03:03:31.073Z,82.19
2017-09-03T03:05:58.703Z,82.90
2017-09-03T03:08:26.294Z,82.49
2017-09-03T03:10:53.909Z,82.23
2017-09-03T03:13:21.554Z,82.80
2017-09-03T03:15:49.186Z,82.24
2017-09-03T03:18:16.803Z,81.58
2017-09-03T03:20:44.446Z,82.45
2017-09-03T03:23:12.318Z,83.37
2017-09-03T03:25:40.361Z,83.84
2017-09-03T03:28:08.441Z,84.35
2017-09-03T03:30:36.514Z,83.86
2017-09-03T03:33:04.153Z,83.32
2017-09-03T03:35:31.809Z,83.87
2017-09-03T03:38:00.010Z,84.15
2017-09-03T03:40:27.864Z,84.87
2017-09-03T03:42:55.656Z,85.08
2017-09-03T03:45:26.961Z,85.78
2017-09-03T03:47:54.963Z,85.81
2017-09-03T03:50:23.138Z,85.07
2017-09-03T03:52:51.311Z,84.39
2017-09-03T03:55:19.490Z,84.47
2017-09-03T03:57:47.851Z,84.32
2017-09-03T04:00:15.932Z,84.30
2017-09-03T04:02:43.562Z,84.00
2017-09-03T04:05:11.291Z,83.21
2017-09-03T04:07:38.884Z,83.39
2017-09-03T04:10:06.675Z,82.57
2017-09-03T04:12:35.057Z,82.25
2017-09-03T04:15:03.344Z,82.16
2017-09-03T04:17:31.621Z,83.02
2017-09-03T04:19:59.887Z,82.65
2017-09-03T04:22:28.073Z,82.96
2017-09-03T04:24:56.334Z,83.77
2017-09-03T04:27:24.507Z,83.97
2017-09-03T04:29:52.784Z,83.91
2017-09-03T04:32:20.870Z,83.70
2017-09-03T04:34:48.840Z,83.47
2017-09-03T04:37:16.687Z,83.67
2017-09-03T04:39:44.755Z,83.01
2017-09-03T04:42:12.680Z,82.61
2017-09-03T04:44:40.572Z,82.78
2017-09-03T04:47:08.561Z,82.41
2017-09-03T04:49:36.543Z,82.88
2017-09-03T04:52:04.135Z,82.91
2017-09-03T04:54:31.759Z,82.56
2017-09-03T04:56:59.362Z,82.67
2017-09-03T04:59:27.003Z,82.96
2017-09-03T05:01:54.650Z,82.39
2017-09-03T05:04:22.274Z,83.51
2017-09-03T05:06:49.863Z,83.83
2017-09-03T05:09:17.484Z,84.01
2017-09-03T05:11:45.610Z,83.37
2017-09-03T05:14:13.783Z,83.33
2017-09-03T05:16:41.952Z,83.11
2017-09-03T05:19:09.966Z,83.07
2017-09-03T05:21:37.790Z,83.26
2017-09-03T05:24:05.548Z,83.79
2017-09-03T05:26:33.353Z,84.63
2017-09-03T05:29:00.983Z,85.19
2017-09-03T05:31:28.778Z,85.61
2017-09-03T05:33:56.594Z,85.59
2017-09-03T05:36:24.338Z,85.19
2017-09-03T05:38:52.122Z,85.16
2017-09-03T05:41:19.825Z,85.33
2017-09-03T05:43:47.656Z,85.52
2017-09-03T05:46:15.388Z,85.55
2017-09-03T05:48:43.053Z,85.89
2017-09-03T05:51:10.755Z,86.50
2017-09-03T05:53:38.364Z,86.40
2017-09-03T05:56:06.335Z,86.92
2017-09-03T05:58:34.148Z,86.39
2017-09-03T06:01:02.040Z,86.17
2017-09-03T06:03:29.916Z,85.90
2017-09-03T06:05:57.853Z,85.29
2017-09-03T06:08:26.639Z,85.45
2017-09-03T06:10:54.532Z,85.56
2017-09-03T06:13:22.131Z,85.45
2017-09-03T06:15:49.725Z,85.21
2017-09-03T06:18:17.372Z,85.54
2017-09-03T06:20:44.982Z,85.80
2017-09-03T06:23:12.603Z,86.25
2017-09-03T06:25:40.194Z,86.25
2017-09-03T06:28:07.828Z,86.34
2017-09-03T06:30:35.430Z,86.55
2017-09-03T06:33:03.058Z,86.80
2017-09-03T06:35:30.676Z,86.67
2017-09-03T06:37:58.302Z,86.61
2017-09-03T06:40:25.917Z,86.60
2017-09-03T06:42:53.538Z,86.85
2017-09-03T06:45:21.146Z,87.02
2017-09-03T06:47:48.818Z,86.56
2017-09-03T06:50:16.399Z,86.53
2017-09-03T06:52:44.043Z,86.12
2017-09-03T06:55:11.648Z,85.85
2017-09-03T06:57:39.326Z,86.33
2017-09-03T07:00:06.938Z,86.43
2017-09-03T07:02:34.598Z,86.63
2017-09-03T07:05:02.213Z,86.03
2017-09-03T07:07:29.902Z,86.13
2017-09-03T07:09:57.515Z,85.36
2017-09-03T07:12:25.136Z,85.04
2017-09-03T07:14:52.791Z,85.94
2017-09-03T07:17:20.402Z,86.17
2017-09-03T07:19:48.038Z,86.72
2017-09-03T07:22:15.674Z,86.83
2017-09-03T07:24:43.339Z,86.40
2017-09-03T07:27:10.974Z,86.38
2017-09-03T07:29:38.623Z,86.27
2017-09-03T07:32:06.253Z,86.62
2017-09-03T07:34:33.888Z,85.81
2017-09-03T07:37:01.498Z,86.38
2017-09-03T07:39:29.142Z,86.59
2017-09-03T07:41:56.762Z,85.33
2017-09-03T07:44:24.458Z,85.75
2017-09-03T07:46:52.090Z,85.81
2017-09-03T07:49:19.724Z,85.67
2017-09-03T07:51:47.357Z,85.65
2017-09-03T07:54:15.004Z,85.43
2017-09-03T07:56:42.612Z,84.72
2017-09-03T07:59:10.252Z,84.05
2017-09-03T08:01:37.855Z,83.33
2017-09-03T08:04:05.482Z,84.08
2017-09-03T08:06:33.107Z,83.94
2017-09-03T08:09:00.739Z,84.40
2017-09-03T08:11:28.426Z,83.02
2017-09-03T08:13:56.059Z,84.04
2017-09-03T08:16:23.826Z,83.39
2017-09-03T08:18:51.538Z,83.15
2017-09-03T08:21:19.390Z,83.28
2017-09-03T08:23:47.211Z,83.04
2017-09-03T08:26:14.983Z,83.79
2017-09-03T08:28:42.768Z,82.87
2017-09-03T08:31:10.538Z,82.55
2017-09-03T08:33:38.275Z,82.51
2017-09-03T08:36:06.097Z,82.65
2017-09-03T08:38:33.927Z,81.34
2017-09-03T08:41:01.629Z,80.48
2017-09-03T08:43:29.577Z,79.56
2017-09-03T08:45:57.451Z,78.63
2017-09-03T08:48:25.271Z,78.01
2017-09-03T08:50:53.124Z,78.21
2017-09-03T08:53:21.015Z,79.11
2017-09-03T08:55:48.857Z,78.27
2017-09-03T08:58:16.800Z,76.88
2017-09-03T09:00:44.654Z,77.17
2017-09-03T09:03:13.358Z,76.89
2017-09-03T09:05:41.245Z,77.26
2017-09-03T09:08:09.050Z,76.72
2017-09-03T09:10:37.116Z,77.01
2017-09-03T09:13:05.011Z,76.40
2017-09-03T09:15:32.814Z,76.75
2017-09-03T09:18:00.614Z,75.69
2017-09-03T09:20:28.470Z,75.32
2017-09-03T09:22:56.270Z,75.52
2017-09-03T09:25:23.903Z,74.03
2017-09-03T09:27:51.515Z,73.63
2017-09-03T09:30:19.219Z,74.00
2017-09-03T09:32:47.069Z,73.53
2017-09-03T09:35:14.781Z,73.31
2017-09-03T09:37:42.568Z,73.00
2017-09-03T09:40:10.466Z,72.31
2017-09-03T09:42:38.091Z,72.12
2017-09-03T09:45:05.796Z,72.22
2017-09-03T09:47:33.434Z,72.65
2017-09-03T09:50:01.065Z,71.08
2017-09-03T09:52:28.704Z,70.65
2017-09-03T09:54:56.423Z,70.05
2017-09-03T09:57:24.027Z,69.18
2017-09-03T09:59:51.675Z,68.63
2017-09-03T10:02:19.319Z,67.65
2017-09-03T10:04:47.015Z,67.92
2017-09-03T10:07:14.738Z,64.89
2017-09-03T10:09:42.354Z,65.27
2017-09-03T10:12:09.975Z,63.21
2017-09-03T10:14:37.618Z,64.17
2017-09-03T10:17:05.217Z,62.73
2017-09-03T10:19:32.874Z,62.05
2017-09-03T10:22:00.514Z,62.11
2017-09-03T10:24:28.196Z,61.83
2017-09-03T10:26:55.924Z,61.31
2017-09-03T10:29:23.555Z,59.59
2017-09-03T10:31:51.171Z,58.54
2017-09-03T10:34:18.864Z,58.62
2017-09-03T10:36:46.479Z,58.61
2017-09-03T10:39:14.195Z,58.39
2017-09-03T10:41:41.799Z,56.25
2017-09-03T10:44:09.435Z,56.29
2017-09-03T10:46:37.075Z,55.83
2017-09-03T10:49:04.707Z,56.15
2017-09-03T10:51:32.350Z,55.66
2017-09-03T10:54:00.059Z,56.09
2017-09-03T10:56:27.678Z,53.95
2017-09-03T10:58:55.291Z,53.98
2017-09-03T11:01:22.965Z,53.01
2017-09-03T11:03:50.559Z,52.90
2017-09-03T11:06:18.261Z,55.37
2017-09-03T11:08:45.890Z,51.36
2017-09-03T11:11:13.563Z,52.36
2017-09-03T11:13:41.208Z,52.17
2017-09-03T11:16:08.839Z,54.02
2017-09-03T11:18:36.440Z,51.32
2017-09-03T11:21:04.054Z,51.38
2017-09-03T11:23:31.662Z,49.14
2017-09-03T11:25:59.308Z,48.99
2017-09-03T11:28:26.917Z,46.43
2017-09-03T11:30:54.608Z,46.13
2017-09-03T11:33:22.190Z,45.42
2017-09-03T11:35:49.906Z,45.80
2017-09-03T11:38:17.579Z,44.07
2017-09-03T11:40:45.278Z,43.59
2017-09-03T11:43:12.891Z,45.81
2017-09-03T11:45:40.615Z,45.53
2017-09-03T11:48:08.211Z,44.95
2017-09-03T11:50:35.816Z,45.16
2017-09-03T11:53:03.482Z,46.23
2017-09-03T11:55:31.129Z,44.81
2017-09-03T11:57:58.740Z,45.80
2017-09-03T12:00:26.351Z,46.42
2017-09-03T12:02:53.964Z,44.13
2017-09-03T12:05:21.594Z,42.50
2017-09-03T12:07:49.189Z,43.32
2017-09-03T12:10:16.792Z,43.15
2017-09-03T12:12:44.410Z,44.71
2017-09-03T12:15:12.079Z,42.80
2017-09-03T12:17:39.723Z,42.55
2017-09-03T12:20:07.314Z,42.41
2017-09-03T12:22:34.947Z,41.59
2017-09-03T12:25:02.661Z,41.84
2017-09-03T12:27:30.275Z,42.48
2017-09-03T12:29:57.895Z,41.89
2017-09-03T12:32:26.190Z,41.35
2017-09-03T12:34:53.795Z,41.40
2017-09-03T12:37:21.442Z,40.64
2017-09-03T12:39:49.030Z,39.66
2017-09-03T12:42:16.672Z,39.08
2017-09-03T12:44:44.281Z,39.98
2017-09-03T12:47:11.899Z,40.51
2017-09-03T12:49:39.495Z,39.92
2017-09-03T12:52:08.774Z,37.85
2017-09-03T12:54:36.367Z,37.84
2017-09-03T12:57:04.012Z,38.72
2017-09-03T12:59:31.619Z,37.70
2017-09-03T13:01:59.287Z,37.98
2017-09-03T13:04:26.998Z,37.42
2017-09-03T13:06:54.598Z,38.96
2017-09-03T13:09:22.256Z,36.33
2017-09-03T13:11:49.843Z,37.48
2017-09-03T13:14:17.479Z,36.10
2017-09-03T13:16:45.274Z,35.71
2017-09-03T13:19:12.926Z,38.33
2017-09-03T13:21:40.523Z,37.09
2017-09-03T13:24:08.147Z,35.91
2017-09-03T13:26:35.858Z,37.14
2017-09-03T13:29:03.486Z,37.51
2017-09-03T13:31:31.197Z,36.58
2017-09-03T13:33:58.842Z,34.72
2017-09-03T13:36:26.434Z,36.15
2017-09-03T13:38:54.097Z,36.90
2017-09-03T13:41:21.723Z,35.02
2017-09-03T13:43:49.347Z,33.57
2017-09-03T13:46:16.974Z,33.99
2017-09-03T13:48:44.640Z,34.11
2017-09-03T13:51:12.258Z,35.02
2017-09-03T13:53:39.894Z,34.39
2017-09-03T13:56:07.590Z,34.65
2017-09-03T13:58:35.258Z,33.91
2017-09-03T14:01:02.862Z,33.78
2017-09-03T14:03:30.557Z,34.10
2017-09-03T14:05:58.159Z,35.39
2017-09-03T14:08:25.822Z,38.56
2017-09-03T14:10:53.423Z,36.05
2017-09-03T14:13:21.044Z,36.84
2017-09-03T14:15:48.657Z,35.13
2017-09-03T14:18:16.290Z,34.21
2017-09-03T14:20:43.887Z,34.38
2017-09-03T14:23:11.511Z,33.07
2017-09-03T14:25:39.122Z,34.56
2017-09-03T14:28:07.179Z,34.41
2017-09-03T14:30:34.771Z,31.84
2017-09-03T14:33:02.437Z,33.43
2017-09-03T14:35:30.038Z,32.85
2017-09-03T14:37:57.684Z,32.86
2017-09-03T14:40:25.282Z,33.32
2017-09-03T14:42:52.890Z,32.27
2017-09-03T14:45:20.531Z,33.48
2017-09-03T14:47:48.138Z,34.15
2017-09-03T14:50:15.797Z,34.03
2017-09-03T14:52:43.410Z,35.07
2017-09-03T14:55:11.089Z,34.98
2017-09-03T14:57:38.670Z,35.08
2017-09-03T15:00:06.310Z,34.73
2017-09-03T15:02:33.919Z,34.76
2017-09-03T15:05:01.561Z,34.98
2017-09-03T15:07:29.266Z,36.81
2017-09-03T15:09:56.899Z,39.63
2017-09-03T15:12:24.521Z,39.77
2017-09-03T15:14:52.159Z,38.69
2017-09-03T15:17:19.883Z,36.97
2017-09-03T15:19:47.523Z,36.41
2017-09-03T15:22:15.142Z,36.68
2017-09-03T15:24:42.970Z,36.52
2017-09-03T15:27:10.562Z,36.62
2017-09-03T15:29:38.345Z,37.74
2017-09-03T15:32:05.943Z,37.13
2017-09-03T15:34:33.607Z,36.82
2017-09-03T15:37:01.271Z,37.23
2017-09-03T15:39:28.924Z,38.07
2017-09-03T15:41:56.530Z,38.07
2017-09-03T15:44:24.283Z,38.22
2017-09-03T15:46:51.918Z,38.58
2017-09-03T15:49:19.513Z,37.86
2017-09-03T15:51:47.149Z,37.57
2017-09-03T15:54:14.769Z,37.44
2017-09-03T15:56:42.430Z,37.45
2017-09-03T15:59:10.026Z,37.00
2017-09-03T16:01:37.645Z,37.08
2017-09-03T16:04:05.247Z,38.47
2017-09-03T16:06:32.883Z,38.77
2017-09-03T16:09:00.524Z,39.36
2017-09-03T16:11:28.211Z,39.90
2017-09-03T16:13:55.823Z,39.19
2017-09-03T16:16:23.447Z,39.93
2017-09-03T16:18:51.056Z,39.95
2017-09-03T16:21:18.708Z,40.33
2017-09-03T16:23:46.347Z,39.93
2017-09-03T16:26:14.069Z,40.63
2017-09-03T16:28:41.667Z,41.37
2017-09-03T16:31:09.294Z,40.04
2017-09-03T16:33:36.903Z,40.57
2017-09-03T16:36:04.530Z,40.62
2017-09-03T16:38:32.123Z,40.76
2017-09-03T16:40:59.782Z,41.47
2017-09-03T16:43:27.440Z,42.70
2017-09-03T16:45:55.054Z,43.33
2017-09-03T16:48:22.695Z,43.77
2017-09-03T16:50:50.301Z,44.45
2017-09-03T16:53:17.939Z,44.82
2017-09-03T16:55:45.550Z,44.85
2017-09-03T16:58:13.191Z,44.52
2017-09-03T17:00:40.789Z,44.42
2017-09-03T17:03:08.408Z,44.64
2017-09-03T17:05:36.007Z,45.21
2017-09-03T17:08:03.670Z,45.73
2017-09-03T17:10:31.264Z,47.16
2017-09-03T17:12:58.890Z,49.36
2017-09-03T17:15:26.503Z,51.08
2017-09-03T17:17:54.131Z,51.72
2017-09-03T17:20:21.723Z,52.62
2017-09-03T17:22:49.558Z,53.49
2017-09-03T17:25:17.155Z,54.17
2017-09-03T17:27:44.820Z,54.16
2017-09-03T17:30:13.207Z,53.92
2017-09-03T17:32:40.868Z,53.34
2017-09-03T17:35:24.111Z,53.38
2017-09-03T17:37:52.243Z,53.04
2017-09-03T17:40:20.371Z,52.82
2017-09-03T17:42:58.610Z,52.04
2017-09-03T17:45:26.223Z,51.41
2017-09-03T17:47:54.065Z,51.24
2017-09-03T17:50:21.675Z,51.10
2017-09-03T17:52:49.308Z,50.15
2017-09-03T17:55:16.900Z,49.22
2017-09-03T17:57:44.548Z,48.42
2017-09-03T18:00:12.140Z,48.22
2017-09-03T18:02:39.805Z,48.24
2017-09-03T18:05:07.983Z,47.84
2017-09-03T18:07:35.631Z,48.45
2017-09-03T18:10:03.264Z,48.51
2017-09-03T18:12:30.899Z,50.36
2017-09-03T18:14:58.502Z,49.31
2017-09-03T18:17:26.115Z,48.98
2017-09-03T18:19:53.756Z,50.80
2017-09-03T18:22:21.391Z,48.76
2017-09-03T18:24:49.011Z,48.23
2017-09-03T18:27:16.628Z,52.18
2017-09-03T18:29:54.123Z,50.30
2017-09-03T18:32:21.759Z,57.20
2017-09-03T18:34:49.363Z,52.93
2017-09-03T18:37:32.786Z,54.17
2017-09-03T18:40:04.159Z,52.20
2017-09-03T18:42:35.315Z,50.60
2017-09-03T18:45:02.987Z,44.64
2017-09-03T18:47:30.631Z,43.79
2017-09-03T18:50:02.730Z,45.63
2017-09-03T18:55:39.703Z,42.94
2017-09-03T18:58:11.186Z,41.92
2017-09-03T19:00:38.813Z,46.03
2017-09-03T19:03:06.470Z,43.99
2017-09-03T19:05:34.471Z,45.14
2017-09-03T19:08:02.105Z,43.17
2017-09-03T19:10:29.738Z,44.13
2017-09-03T19:12:57.376Z,43.98
2017-09-03T19:15:24.983Z,39.88
2017-09-03T19:17:52.606Z,41.14
2017-09-03T19:20:20.236Z,42.82
2017-09-03T19:22:47.879Z,44.58
2017-09-03T19:25:15.485Z,45.69
2017-09-03T19:27:43.112Z,46.73
2017-09-03T19:30:10.780Z,48.15
2017-09-03T19:32:38.427Z,48.43
2017-09-03T19:35:06.058Z,49.36
2017-09-03T19:37:34.184Z,50.78
2017-09-03T19:40:01.787Z,49.88
2017-09-03T19:42:29.438Z,51.39
2017-09-03T19:44:57.038Z,52.80
2017-09-03T19:47:24.638Z,53.36
2017-09-03T19:49:52.280Z,53.92
2017-09-03T19:52:19.972Z,54.05
2017-09-03T19:54:47.610Z,52.75
2017-09-03T19:57:15.194Z,53.83
2017-09-03T19:59:42.820Z,54.30
2017-09-03T20:02:10.414Z,54.65
2017-09-03T20:04:38.031Z,54.61
2017-09-03T20:07:05.662Z,55.03
2017-09-03T20:09:33.302Z,55.82
2017-09-03T20:12:00.898Z,56.48
2017-09-03T20:14:28.534Z,55.62
2017-09-03T20:16:56.154Z,56.96
2017-09-03T20:19:23.780Z,55.74
2017-09-03T20:21:51.387Z,57.27
2017-09-03T20:24:19.011Z,57.40
2017-09-03T20:26:46.619Z,59.08
2017-09-03T20:29:14.257Z,58.56
2017-09-03T20:31:41.878Z,57.82
2017-09-03T20:34:09.506Z,58.42
2017-09-03T20:36:37.110Z,58.96
2017-09-03T20:39:04.747Z,59.35
2017-09-03T20:41:32.358Z,58.98
2017-09-03T20:43:59.997Z,59.16
2017-09-03T20:46:27.608Z,59.06
2017-09-03T20:48:55.290Z,59.93
2017-09-03T20:51:22.930Z,61.00
2017-09-03T20:53:50.533Z,61.29
2017-09-03T20:56:18.174Z,60.63
2017-09-03T20:58:45.782Z,62.39
2017-09-03T21:01:13.462Z,62.56
2017-09-03T21:03:41.062Z,62.39
2017-09-03T21:06:08.702Z,62.40
2017-09-03T21:08:36.298Z,63.20
2017-09-03T21:11:03.945Z,63.76
2017-09-03T21:13:31.547Z,63.89
2017-09-03T21:15:59.270Z,64.26
2017-09-03T21:18:26.894Z,63.55
2017-09-03T21:20:54.638Z,63.48
2017-09-03T21:23:22.254Z,64.61
2017-09-03T21:25:49.848Z,64.73
2017-09-03T21:28:17.488Z,63.56
2017-09-03T21:30:45.135Z,63.29
2017-09-03T21:33:12.741Z,64.16
2017-09-03T21:35:40.419Z,64.65
2017-09-03T21:38:08.014Z,63.33
2017-09-03T21:40:35.710Z,64.06
2017-09-03T21:43:03.303Z,64.11
2017-09-03T21:45:30.926Z,63.03
2017-09-03T21:47:58.519Z,62.67
2017-09-03T21:50:26.139Z,62.63
2017-09-03T21:52:53.742Z,63.24
2017-09-03T21:55:21.332Z,64.36
2017-09-03T21:57:48.993Z,65.11
2017-09-03T22:00:16.610Z,64.76
2017-09-03T22:02:44.262Z,64.81
2017-09-03T22:05:11.882Z,64.67
2017-09-03T22:07:39.573Z,65.07
2017-09-03T22:10:07.187Z,65.17
2017-09-03T22:12:34.849Z,65.17
2017-09-03T22:15:02.497Z,65.47
2017-09-03T22:17:30.445Z,65.18
2017-09-03T22:19:58.072Z,65.50
2017-09-03T22:22:26.442Z,65.82
2017-09-03T22:24:54.105Z,65.40
2017-09-03T22:27:21.720Z,65.55
2017-09-03T22:29:49.368Z,65.94
2017-09-03T22:32:16.973Z,66.07
2017-09-03T22:34:44.598Z,65.98
2017-09-03T22:37:12.207Z,66.60
2017-09-03T22:39:39.838Z,66.94
2017-09-03T22:42:07.429Z,66.36
2017-09-03T22:44:35.106Z,66.52
2017-09-03T22:47:02.769Z,67.07
2017-09-03T22:49:30.351Z,66.41
2017-09-03T22:51:57.986Z,66.45
2017-09-03T22:54:25.685Z,66.50
2017-09-03T22:56:53.317Z,66.77
2017-09-03T22:59:20.938Z,66.73
2017-09-03T23:01:48.639Z,66.74
2017-09-03T23:04:16.258Z,67.07
2017-09-03T23:06:43.931Z,66.80
2017-09-03T23:09:11.603Z,66.98
2017-09-03T23:11:39.195Z,66.98
2017-09-03T23:14:06.795Z,67.12
2017-09-03T23:16:34.420Z,67.71
2017-09-03T23:19:02.020Z,67.52
2017-09-03T23:21:29.698Z,67.61
2017-09-03T23:23:57.314Z,67.57
2017-09-03T23:26:25.085Z,68.04
2017-09-03T23:28:52.682Z,68.05
2017-09-03T23:31:20.367Z,68.25
2017-09-03T23:33:48.019Z,68.34
2017-09-03T23:36:15.643Z,68.44
2017-09-03T23:38:43.264Z,68.70
2017-09-03T23:41:10.914Z,68.66
2017-09-03T23:43:38.558Z,68.80
2017-09-03T23:46:06.264Z,68.58
2017-09-03T23:48:33.882Z,68.60
2017-09-03T23:51:01.536Z,68.46
2017-09-03T23:53:29.149Z,68.67
2017-09-03T23:55:56.809Z,68.97
2017-09-03T23:58:24.431Z,69.40
